Time;durP1;ratioP1;P1;durP2;ratioP2;P2;SDS_P1;SDS_P2;PMS_P1;PMS_P2;Temp;Humidity;BMP_temperature;BMP_pressure;BME280_temperature;BME280_humidity;BME280_pressure;Samples;Min_cycle;Max_cycle;Signal;HPM_P1;HPM_P2
2021/07/06 00:01:29;;;;;;;19.15;7.80;;;;;;;17.31;69.87;99974.33;125924;1093;23202;-58
2021/07/06 00:04:01;;;;;;;20.10;7.20;;;;;;;17.28;69.46;99971.79;125731;1093;23168;-60
2021/07/06 00:06:32;;;;;;;16.30;7.60;;;;;;;17.23;70.06;99967.77;125658;1092;22968;-57
2021/07/06 00:09:05;;;;;;;16.60;7.20;;;;;;;17.20;69.71;99980.09;125763;1092;22764;-60
2021/07/06 00:11:37;;;;;;;20.10;8.30;;;;;;;17.15;69.94;99975.30;125795;1093;24457;-59
2021/07/06 00:14:10;;;;;;;17.05;7.55;;;;;;;17.11;70.25;99971.99;125689;1093;24465;-60
2021/07/06 00:16:42;;;;;;;16.00;7.35;;;;;;;17.08;70.02;99975.13;125704;1093;22828;-59
2021/07/06 00:19:14;;;;;;;15.65;7.40;;;;;;;17.06;70.09;99981.30;125694;1093;22847;-58
2021/07/06 00:21:46;;;;;;;17.67;7.10;;;;;;;17.03;70.39;99973.14;125772;1093;27179;-58
2021/07/06 00:24:17;;;;;;;15.35;7.35;;;;;;;17.01;70.08;99981.38;125701;1093;22805;-57
2021/07/06 00:26:48;;;;;;;14.30;7.10;;;;;;;16.97;70.76;99979.59;125696;1092;22791;-59
2021/07/06 00:29:20;;;;;;;19.90;7.20;;;;;;;16.94;70.55;99982.72;125705;1092;27655;-59
2021/07/06 00:31:51;;;;;;;16.00;7.00;;;;;;;16.94;70.71;99982.72;125709;1093;26514;-59
2021/07/06 00:34:22;;;;;;;19.75;7.55;;;;;;;16.92;71.09;99985.30;125709;1093;22847;-62
2021/07/06 00:36:54;;;;;;;19.40;7.80;;;;;;;16.88;71.26;99985.58;125725;1093;22797;-59
2021/07/06 00:39:26;;;;;;;16.95;8.70;;;;;;;16.87;71.37;99977.66;125697;1093;22854;-59
2021/07/06 00:41:57;;;;;;;16.40;8.50;;;;;;;16.84;71.34;99976.66;125864;1092;22828;-59
2021/07/06 00:44:28;;;;;;;17.25;7.40;;;;;;;16.82;71.24;99970.78;125697;1093;22850;-57
2021/07/06 00:47:00;;;;;;;16.80;8.60;;;;;;;16.80;71.18;99975.44;125774;1093;22797;-58
2021/07/06 00:49:32;;;;;;;15.40;8.35;;;;;;;16.79;71.53;99973.91;126055;1093;22794;-60
2021/07/06 00:52:04;;;;;;;21.40;8.50;;;;;;;16.76;71.62;99975.72;125642;1093;22767;-60
2021/07/06 00:54:36;;;;;;;19.80;9.15;;;;;;;16.74;71.31;99969.08;125725;1093;22908;-59
2021/07/06 00:57:10;;;;;;;21.80;11.25;;;;;;;16.72;71.50;99983.70;125878;1093;27179;-58
2021/07/06 00:59:41;;;;;;;20.35;10.00;;;;;;;16.70;71.83;99988.33;125790;1092;26318;-62
2021/07/06 01:02:12;;;;;;;19.50;10.70;;;;;;;16.67;71.82;99986.59;125710;1093;22794;-58
2021/07/06 01:04:44;;;;;;;19.13;9.77;;;;;;;16.65;71.99;99987.13;125760;1093;22797;-59
2021/07/06 01:07:16;;;;;;;18.00;9.15;;;;;;;16.65;72.12;99981.48;125684;1093;27179;-57
2021/07/06 01:09:47;;;;;;;16.70;9.15;;;;;;;16.66;72.11;99971.72;125833;1093;24465;-57
2021/07/06 01:12:18;;;;;;;17.30;9.30;;;;;;;16.64;72.26;99974.30;125701;1092;27182;-59
2021/07/06 01:14:51;;;;;;;16.85;8.50;;;;;;;16.60;72.37;99973.06;125675;1093;22792;-60
2021/07/06 01:17:30;;;;;;;17.95;8.60;;;;;;;16.56;72.44;99978.23;125956;1092;26261;-58
2021/07/06 01:20:06;;;;;;;19.98;8.60;;;;;;;16.54;72.14;99969.53;125829;1092;22779;-59
2021/07/06 01:22:38;;;;;;;21.20;8.80;;;;;;;16.53;72.57;99968.02;125801;1093;22771;-60
2021/07/06 01:25:12;;;;;;;20.00;9.35;;;;;;;16.51;72.32;99959.33;125778;1093;22855;-60
2021/07/06 01:27:44;;;;;;;17.93;9.23;;;;;;;16.48;72.48;99960.34;125849;1092;22778;-60
2021/07/06 01:30:19;;;;;;;17.85;8.55;;;;;;;16.45;72.47;99972.69;125713;1093;22797;-60
2021/07/06 01:32:51;;;;;;;18.83;8.70;;;;;;;16.41;72.66;99961.68;125695;1091;25868;-59
2021/07/06 01:35:23;;;;;;;19.45;9.55;;;;;;;16.37;72.83;99964.02;125686;1093;22773;-58
2021/07/06 01:37:57;;;;;;;17.00;8.20;;;;;;;16.34;72.81;99970.73;125813;1093;22823;-59
2021/07/06 01:40:32;;;;;;;17.10;8.25;;;;;;;16.31;73.30;99973.81;125806;1093;22803;-58
2021/07/06 01:43:04;;;;;;;18.63;9.27;;;;;;;16.28;72.94;99972.83;125964;1093;22799;-60
2021/07/06 01:45:39;;;;;;;19.40;9.60;;;;;;;16.24;72.97;99963.91;125717;1092;22796;-59
2021/07/06 01:48:11;;;;;;;15.73;8.43;;;;;;;16.21;73.09;99967.75;125729;1093;26279;-58
2021/07/06 01:50:44;;;;;;;16.97;8.17;;;;;;;16.18;73.48;99969.56;125718;1093;22800;-59
2021/07/06 01:53:17;;;;;;;17.00;8.80;;;;;;;16.14;73.13;99957.05;125743;1093;24429;-58
2021/07/06 01:55:51;;;;;;;15.20;8.10;;;;;;;16.12;73.40;99959.63;125814;1093;22790;-58
2021/07/06 01:58:26;;;;;;;16.13;7.33;;;;;;;16.09;73.54;99955.83;125734;1093;22764;-59
2021/07/06 02:01:00;;;;;;;18.40;7.95;;;;;;;16.08;73.12;99951.47;125911;1092;25842;-58
2021/07/06 02:03:33;;;;;;;17.40;8.27;;;;;;;16.06;73.54;99956.09;125838;1093;27667;-59
2021/07/06 02:06:04;;;;;;;15.30;7.70;;;;;;;16.00;73.53;99955.38;125947;1093;22767;-58
2021/07/06 02:08:37;;;;;;;18.10;8.85;;;;;;;15.97;73.42;99956.43;125691;1093;27176;-59
2021/07/06 02:11:09;;;;;;;17.93;8.57;;;;;;;15.94;73.39;99960.28;125940;1093;22923;-59
2021/07/06 02:13:40;;;;;;;15.15;7.75;;;;;;;15.89;73.40;99953.40;125822;1093;22931;-59
2021/07/06 02:16:12;;;;;;;17.10;6.90;;;;;;;15.89;73.23;99956.21;125683;1093;22801;-61
2021/07/06 02:18:44;;;;;;;18.65;7.65;;;;;;;15.88;73.65;99959.56;125786;1093;22821;-60
2021/07/06 02:21:16;;;;;;;16.25;8.50;;;;;;;15.86;73.72;99948.83;125900;1093;22794;-59
2021/07/06 02:23:49;;;;;;;17.30;8.00;;;;;;;15.85;73.77;99952.91;125687;1093;27179;-59
2021/07/06 02:26:21;;;;;;;17.90;8.05;;;;;;;15.83;73.39;99963.19;125856;1093;22797;-59
2021/07/06 02:28:53;;;;;;;14.40;7.10;;;;;;;15.81;73.40;99960.11;125757;1093;22768;-59
2021/07/06 02:31:24;;;;;;;17.25;7.80;;;;;;;15.79;73.69;99957.05;125719;1093;22793;-57
2021/07/06 02:33:57;;;;;;;16.57;7.77;;;;;;;15.74;73.76;99964.27;125664;1093;22812;-59
2021/07/06 02:36:28;;;;;;;15.60;7.70;;;;;;;15.69;73.64;99959.42;125872;1093;22800;-59
2021/07/06 02:39:00;;;;;;;18.00;7.80;;;;;;;15.67;73.81;99961.22;125680;1093;22748;-58
2021/07/06 02:41:32;;;;;;;15.53;7.93;;;;;;;15.64;73.88;99967.91;125778;1093;27673;-60
2021/07/06 02:44:03;;;;;;;16.15;7.05;;;;;;;15.61;73.46;99966.89;125687;1093;27377;-58
2021/07/06 02:46:35;;;;;;;20.65;7.15;;;;;;;15.56;73.58;99961.31;125740;1093;22797;-59
2021/07/06 02:49:07;;;;;;;15.45;7.35;;;;;;;15.54;73.83;99959.00;125855;1092;22816;-60
2021/07/06 02:51:39;;;;;;;16.73;7.50;;;;;;;15.53;73.65;99962.34;125716;1093;22922;-60
2021/07/06 02:54:11;;;;;;;19.95;7.65;;;;;;;15.50;73.80;99958.51;125826;1093;22784;-60
2021/07/06 02:56:43;;;;;;;16.15;8.00;;;;;;;15.47;73.90;99962.38;125883;1093;24588;-59
2021/07/06 02:59:15;;;;;;;21.30;7.57;;;;;;;15.46;74.22;99958.02;125799;1092;22790;-61
2021/07/06 03:01:47;;;;;;;15.55;6.60;;;;;;;15.45;74.13;99955.73;125797;1093;22767;-60
2021/07/06 03:04:18;;;;;;;16.05;7.35;;;;;;;15.44;74.09;99965.44;125705;1093;23496;-60
2021/07/06 03:06:50;;;;;;;17.00;7.10;;;;;;;15.44;74.45;99968.25;125894;1091;26672;-57
2021/07/06 03:09:22;;;;;;;16.47;6.90;;;;;;;15.43;74.53;99961.11;125872;1092;24454;-59
2021/07/06 03:11:54;;;;;;;14.60;7.25;;;;;;;15.40;74.14;99974.91;126055;1093;22702;-61
2021/07/06 03:14:26;;;;;;;13.13;6.93;;;;;;;15.39;74.62;99969.80;126089;1093;22935;-58
2021/07/06 03:16:59;;;;;;;16.77;7.30;;;;;;;15.39;74.44;99975.43;126036;1093;22794;-59
2021/07/06 03:19:35;;;;;;;15.85;6.90;;;;;;;15.38;74.73;99971.84;126325;1093;22862;-60
2021/07/06 03:22:08;;;;;;;13.93;6.30;;;;;;;15.38;74.54;99971.84;126180;1093;22778;-61
2021/07/06 03:24:41;;;;;;;15.50;6.87;;;;;;;15.36;74.84;99971.60;126077;1093;27157;-59
2021/07/06 03:27:13;;;;;;;15.70;7.60;;;;;;;15.36;74.57;99982.08;126105;1093;22956;-60
2021/07/06 03:29:46;;;;;;;17.25;6.85;;;;;;;15.37;75.12;99975.92;126050;1093;22930;-62
2021/07/06 03:32:18;;;;;;;14.55;6.85;;;;;;;15.37;74.82;99986.44;125937;1093;22778;-61
2021/07/06 03:34:51;;;;;;;18.40;7.25;;;;;;;15.39;75.26;99976.17;126102;1093;22833;-61
2021/07/06 03:37:22;;;;;;;18.40;6.90;;;;;;;15.40;75.40;99974.13;125982;1092;27491;-60
2021/07/06 03:39:55;;;;;;;14.70;6.80;;;;;;;15.40;75.34;99974.91;126012;1093;22775;-60
2021/07/06 03:42:27;;;;;;;17.45;7.25;;;;;;;15.44;75.84;99973.88;126152;1092;22750;-60
2021/07/06 03:44:59;;;;;;;15.80;7.50;;;;;;;15.47;75.77;99970.05;125988;1093;22767;-60
2021/07/06 03:47:31;;;;;;;17.70;6.95;;;;;;;15.52;76.01;99977.70;126004;1093;22795;-60
2021/07/06 03:50:04;;;;;;;17.53;7.77;;;;;;;15.57;76.21;99974.08;126233;1093;22764;-60
2021/07/06 03:52:35;;;;;;;17.70;7.65;;;;;;;15.61;75.92;99966.89;125769;1093;22797;-60
2021/07/06 03:55:09;;;;;;;17.90;7.35;;;;;;;15.66;76.27;99968.92;125960;1092;22928;-60
2021/07/06 03:57:41;;;;;;;20.50;8.60;;;;;;;15.72;76.64;99966.84;125938;1093;22767;-58
2021/07/06 04:00:16;;;;;;;20.65;8.35;;;;;;;15.77;76.30;99971.66;126228;1093;22854;-58
2021/07/06 04:02:49;;;;;;;19.55;8.65;;;;;;;15.82;76.39;99972.91;126069;1093;22735;-61
2021/07/06 04:05:21;;;;;;;19.90;7.70;;;;;;;15.88;76.54;99977.22;126245;1092;24417;-61
2021/07/06 04:07:53;;;;;;;16.60;7.05;;;;;;;15.96;76.78;99977.41;125897;1093;27128;-59
2021/07/06 04:10:25;;;;;;;14.10;7.50;;;;;;;16.03;77.06;99976.86;125964;1093;22848;-60
2021/07/06 04:12:57;;;;;;;16.73;7.17;;;;;;;16.08;76.96;99979.63;125859;1093;22773;-59
2021/07/06 04:15:28;;;;;;;16.03;6.80;;;;;;;16.15;76.50;99976.26;125894;1093;22767;-59
2021/07/06 04:18:00;;;;;;;15.75;6.50;;;;;;;16.24;76.97;99982.84;126121;1093;22761;-58
2021/07/06 04:20:34;;;;;;;15.37;6.07;;;;;;;16.33;76.98;99983.27;125945;1093;22969;-58
2021/07/06 04:23:07;;;;;;;14.40;6.00;;;;;;;16.41;76.70;99977.84;125955;1093;23253;-62
2021/07/06 04:25:39;;;;;;;15.85;6.70;;;;;;;16.48;77.08;99982.89;126169;1093;22858;-62
2021/07/06 04:28:11;;;;;;;14.00;6.00;;;;;;;16.57;77.29;99982.59;125902;1093;22852;-60
2021/07/06 04:30:43;;;;;;;13.35;5.80;;;;;;;16.63;76.94;99978.43;125883;1093;27358;-62
2021/07/06 04:33:14;;;;;;;14.20;5.55;;;;;;;16.70;76.53;99977.83;125904;1092;28081;-60
2021/07/06 04:35:46;;;;;;;15.30;5.65;;;;;;;16.80;77.25;99978.27;126001;1093;25896;-60
2021/07/06 04:38:18;;;;;;;16.45;5.30;;;;;;;16.89;77.22;99986.35;125915;1093;27265;-58
2021/07/06 04:40:50;;;;;;;13.25;5.15;;;;;;;16.98;77.50;99986.78;125896;1093;22770;-58
2021/07/06 04:43:22;;;;;;;14.70;5.50;;;;;;;17.12;77.41;99987.63;125914;1093;26273;-59
2021/07/06 04:45:54;;;;;;;14.85;6.00;;;;;;;17.26;77.22;99988.48;125875;1092;22777;-61
2021/07/06 04:48:29;;;;;;;11.00;4.10;;;;;;;17.39;77.18;99986.54;125933;1092;27239;-59
2021/07/06 04:51:06;;;;;;;15.40;7.00;;;;;;;17.49;77.02;99984.89;126004;1091;22778;-61
2021/07/06 04:53:39;;;;;;;13.85;6.05;;;;;;;17.60;76.81;99987.58;125882;1093;22778;-60
2021/07/06 04:56:12;;;;;;;15.00;4.90;;;;;;;17.72;77.04;99988.95;125937;1092;24353;-62
2021/07/06 04:58:45;;;;;;;11.30;3.45;;;;;;;17.82;76.38;99997.02;126048;1092;22779;-63
2021/07/06 05:01:18;;;;;;;9.87;3.33;;;;;;;17.88;76.51;99989.25;126264;1093;22763;-62
2021/07/06 05:03:50;;;;;;;11.15;3.10;;;;;;;18.01;76.83;99990.06;125880;1093;22922;-61
2021/07/06 05:06:23;;;;;;;10.40;3.15;;;;;;;18.11;76.19;99998.89;125953;1092;24343;-62
2021/07/06 05:08:56;;;;;;;8.50;2.60;;;;;;;18.19;76.30;99994.14;125876;1093;22821;-62
2021/07/06 05:11:28;;;;;;;6.10;2.00;;;;;;;18.30;76.62;99994.74;125858;1093;22759;-60
2021/07/06 05:13:59;;;;;;;7.73;2.60;;;;;;;18.45;75.85;99995.05;126349;1092;22776;-60
2021/07/06 05:16:33;;;;;;;8.07;2.10;;;;;;;18.57;76.18;99995.61;125898;1092;22770;-59
2021/07/06 05:19:04;;;;;;;6.15;2.00;;;;;;;18.69;75.82;99998.98;126019;1093;22770;-60
2021/07/06 05:21:36;;;;;;;13.40;2.00;;;;;;;18.85;75.81;100006.43;125828;1092;22770;-62
2021/07/06 05:24:09;;;;;;;8.60;1.60;;;;;;;18.98;75.44;100012.08;125930;1093;22790;-64
2021/07/06 05:26:41;;;;;;;8.50;1.90;;;;;;;19.11;75.43;100012.09;126061;1093;22868;-60
2021/07/06 05:29:13;;;;;;;9.00;1.80;;;;;;;19.21;75.49;100021.67;125804;1093;24214;-59
2021/07/06 05:31:45;;;;;;;6.40;1.60;;;;;;;19.37;75.03;100017.77;125749;1092;22767;-59
2021/07/06 05:34:18;;;;;;;6.67;1.57;;;;;;;19.49;74.92;100010.57;125822;1093;22794;-59
2021/07/06 05:36:51;;;;;;;7.63;1.50;;;;;;;19.56;74.01;100020.48;125747;1093;22957;-61
2021/07/06 05:39:23;;;;;;;5.47;1.60;;;;;;;19.65;74.51;100025.70;125868;1093;22941;-62
2021/07/06 05:41:55;;;;;;;6.30;1.60;;;;;;;19.72;74.18;100020.13;126389;1092;25961;-64
2021/07/06 05:44:27;;;;;;;4.00;1.27;;;;;;;19.82;74.08;100024.02;125867;1093;24525;-60
2021/07/06 05:47:02;;;;;;;5.70;1.28;;;;;;;19.91;73.70;100020.73;125747;1092;22822;-58
2021/07/06 05:49:34;;;;;;;5.27;1.00;;;;;;;20.00;73.21;100025.18;125842;1093;22780;-57
2021/07/06 05:52:07;;;;;;;9.80;1.40;;;;;;;20.13;73.19;100025.88;126026;1091;27462;-59
2021/07/06 05:54:39;;;;;;;3.28;1.10;;;;;;;20.26;72.55;100027.20;125707;1093;22960;-60
2021/07/06 05:57:11;;;;;;;4.73;1.10;;;;;;;20.38;72.69;100026.34;125785;1093;22948;-59
2021/07/06 05:59:44;;;;;;;8.53;1.28;;;;;;;20.53;72.20;100025.73;125637;1093;22771;-59
2021/07/06 06:02:17;;;;;;;4.38;1.00;;;;;;;20.65;72.19;100024.16;127595;1093;25500;-60
2021/07/06 06:04:49;;;;;;;6.37;1.10;;;;;;;20.77;71.57;100031.81;125631;1093;22767;-58
2021/07/06 06:07:23;;;;;;;3.10;0.95;;;;;;;20.88;71.10;100027.92;125760;1093;22788;-58
2021/07/06 06:09:55;;;;;;;4.35;0.90;;;;;;;21.00;71.02;100029.17;125724;1093;22815;-58
2021/07/06 06:12:27;;;;;;;6.88;1.20;;;;;;;21.17;70.99;100026.66;125713;1093;24163;-57
2021/07/06 06:14:58;;;;;;;5.45;0.90;;;;;;;21.27;70.83;100021.98;125772;1092;22767;-56
2021/07/06 06:17:30;;;;;;;2.50;0.73;;;;;;;21.37;69.94;100027.92;125744;1092;22800;-59
2021/07/06 06:20:01;;;;;;;5.48;0.98;;;;;;;21.48;70.44;100030.42;125854;1093;27254;-58
2021/07/06 06:22:33;;;;;;;6.03;1.15;;;;;;;21.58;69.59;100020.82;125814;1092;22770;-57
2021/07/06 06:25:06;;;;;;;11.07;0.80;;;;;;;21.69;69.97;100029.03;126037;1093;23202;-56
2021/07/06 06:27:38;;;;;;;6.10;0.80;;;;;;;21.87;69.92;100029.33;125876;1093;26727;-58
2021/07/06 06:30:12;;;;;;;7.33;1.10;;;;;;;21.98;69.38;100023.28;125787;1093;22794;-57
2021/07/06 06:32:44;;;;;;;3.38;0.70;;;;;;;22.13;68.79;100020.48;125858;1093;22922;-57
2021/07/06 06:35:16;;;;;;;4.37;0.70;;;;;;;22.26;68.22;100021.08;125778;1093;22793;-58
2021/07/06 06:37:48;;;;;;;6.30;1.00;;;;;;;22.37;67.57;100025.65;125888;1093;27182;-58
2021/07/06 06:40:21;;;;;;;4.95;0.93;;;;;;;22.46;67.30;100025.88;125739;1093;22783;-59
2021/07/06 06:42:53;;;;;;;2.65;0.60;;;;;;;22.55;67.12;100028.14;125806;1091;22756;-58
2021/07/06 06:45:25;;;;;;;2.00;0.73;;;;;;;22.66;66.78;100017.77;125862;1093;22787;-58
2021/07/06 06:47:58;;;;;;;2.85;0.60;;;;;;;22.79;66.40;100026.09;125950;1093;22797;-58
2021/07/06 06:50:29;;;;;;;4.75;0.53;;;;;;;22.86;65.84;100017.57;125757;1093;22763;-57
2021/07/06 06:53:00;;;;;;;2.33;0.63;;;;;;;22.99;65.59;100016.59;125827;1093;22815;-59
2021/07/06 06:55:32;;;;;;;3.35;0.50;;;;;;;23.10;64.97;100021.89;125745;1093;22770;-58
2021/07/06 06:58:03;;;;;;;4.20;0.40;;;;;;;23.16;64.55;100028.91;125690;1093;22764;-58
2021/07/06 07:00:37;;;;;;;2.85;0.40;;;;;;;23.27;64.32;100024.91;125695;1093;24449;-58
2021/07/06 07:03:10;;;;;;;7.00;0.43;;;;;;;23.42;64.07;100015.60;125940;1093;27173;-58
2021/07/06 07:05:44;;;;;;;2.10;0.40;;;;;;;23.51;63.20;100023.53;126040;1092;22791;-58
2021/07/06 07:08:18;;;;;;;2.43;0.40;;;;;;;23.58;62.61;100019.91;125933;1092;22767;-59
2021/07/06 07:10:53;;;;;;;1.50;0.40;;;;;;;23.69;62.48;100022.35;125985;1092;24465;-59
2021/07/06 07:13:27;;;;;;;2.43;0.50;;;;;;;23.77;62.66;100018.14;125969;1092;22840;-60
2021/07/06 07:16:03;;;;;;;2.40;0.50;;;;;;;23.87;62.44;100021.13;126046;1093;22725;-60
2021/07/06 07:18:34;;;;;;;1.17;0.30;;;;;;;24.01;62.71;100028.09;126014;1093;24734;-61
2021/07/06 07:21:06;;;;;;;3.43;0.85;;;;;;;24.13;61.45;100022.75;126036;1093;22821;-59
2021/07/06 07:23:37;;;;;;;2.00;0.38;;;;;;;24.21;60.68;100034.87;125948;1092;22767;-58
2021/07/06 07:26:09;;;;;;;1.85;0.40;;;;;;;24.27;60.67;100030.43;125884;1093;22768;-59
2021/07/06 07:28:41;;;;;;;1.68;0.50;;;;;;;24.35;60.43;100028.31;125927;1093;26031;-58
2021/07/06 07:31:12;;;;;;;1.83;0.50;;;;;;;24.43;60.12;100016.84;126073;1093;22767;-58
2021/07/06 07:33:44;;;;;;;2.43;0.50;;;;;;;24.50;59.74;100018.89;125693;1093;22742;-58
2021/07/06 07:36:17;;;;;;;2.23;0.40;;;;;;;24.59;59.00;100013.30;125837;1093;26359;-56
2021/07/06 07:38:48;;;;;;;1.18;0.38;;;;;;;24.65;58.88;100021.61;125748;1092;22768;-58
2021/07/06 07:41:19;;;;;;;1.15;0.28;;;;;;;24.68;57.79;100006.95;125580;1093;22797;-58
2021/07/06 07:43:53;;;;;;;1.28;0.40;;;;;;;24.75;58.54;100014.70;125791;1093;22751;-59
2021/07/06 07:46:26;;;;;;;1.35;0.38;;;;;;;24.86;57.70;100005.67;125759;1093;22783;-59
2021/07/06 07:48:57;;;;;;;8.43;0.60;;;;;;;24.97;58.05;100010.16;125776;1093;24512;-60
2021/07/06 07:51:29;;;;;;;3.37;0.37;;;;;;;25.08;57.67;100012.50;125863;1092;25875;-57
2021/07/06 07:54:01;;;;;;;3.00;0.50;;;;;;;25.15;56.85;100017.39;125803;1092;22814;-60
2021/07/06 07:56:32;;;;;;;1.40;0.30;;;;;;;25.18;56.59;100009.75;125755;1093;22794;-59
2021/07/06 07:59:09;;;;;;;2.08;0.40;;;;;;;25.20;56.32;100007.80;125754;1093;22767;-59
2021/07/06 08:01:41;;;;;;;1.50;0.37;;;;;;;25.23;56.15;100008.73;125799;1093;23477;-60
2021/07/06 08:04:13;;;;;;;1.78;0.45;;;;;;;25.33;55.57;100012.44;125875;1092;22767;-60
2021/07/06 08:06:48;;;;;;;1.60;0.30;;;;;;;25.41;55.51;100013.16;125797;1093;22851;-60
2021/07/06 08:09:19;;;;;;;1.07;0.40;;;;;;;25.49;55.50;100008.84;125825;1093;25874;-60
2021/07/06 08:11:51;;;;;;;2.33;0.50;;;;;;;25.58;54.88;100013.90;125755;1093;22748;-59
2021/07/06 08:14:22;;;;;;;1.60;0.33;;;;;;;25.65;54.43;100018.02;125764;1093;22794;-58
2021/07/06 08:16:57;;;;;;;1.05;0.33;;;;;;;25.75;54.06;100004.55;125754;1093;22921;-58
2021/07/06 08:19:29;;;;;;;2.65;0.50;;;;;;;25.82;54.21;99997.23;125702;1093;22776;-59
2021/07/06 08:22:00;;;;;;;2.25;0.50;;;;;;;25.89;52.96;100010.66;125973;1093;24608;-59
2021/07/06 08:24:32;;;;;;;1.60;0.30;;;;;;;25.96;53.32;100016.29;125746;1093;26392;-59
2021/07/06 08:27:04;;;;;;;5.73;0.53;;;;;;;26.03;52.27;100008.96;125876;1093;22777;-62
2021/07/06 08:29:38;;;;;;;3.63;0.55;;;;;;;26.09;52.35;100009.47;125851;1093;22767;-62
2021/07/06 08:32:11;;;;;;;1.85;0.40;;;;;;;26.11;51.83;99998.92;125713;1093;23270;-58
2021/07/06 08:34:43;;;;;;;1.00;0.40;;;;;;;26.14;52.32;99997.75;125941;1092;22793;-59
2021/07/06 08:37:15;;;;;;;3.47;0.53;;;;;;;26.25;51.25;99993.59;125813;1092;22801;-60
2021/07/06 08:39:47;;;;;;;2.38;0.35;;;;;;;26.29;51.78;99994.67;125760;1092;22812;-60
2021/07/06 08:42:23;;;;;;;1.75;0.45;;;;;;;26.34;51.64;99987.17;125865;1093;22793;-59
2021/07/06 08:44:54;;;;;;;1.38;0.30;;;;;;;26.45;51.30;99990.22;125823;1091;23060;-60
2021/07/06 08:47:30;;;;;;;2.33;0.30;;;;;;;26.54;50.78;99991.62;125767;1093;22770;-59
2021/07/06 08:50:06;;;;;;;1.00;0.30;;;;;;;26.62;50.27;100003.70;125808;1093;22787;-60
2021/07/06 08:52:44;;;;;;;1.75;0.28;;;;;;;26.58;49.80;99996.89;125856;1093;22767;-59
2021/07/06 08:55:16;;;;;;;2.35;0.40;;;;;;;26.66;49.64;100000.39;125905;1092;22798;-59
2021/07/06 08:57:51;;;;;;;2.10;0.28;;;;;;;26.71;49.44;99993.63;126067;1093;22851;-62
2021/07/06 09:00:29;;;;;;;3.27;0.40;;;;;;;26.77;49.67;99999.86;125869;1093;22795;-59
2021/07/06 09:03:04;;;;;;;2.83;0.40;;;;;;;26.86;49.52;99997.02;125800;1093;22805;-60
2021/07/06 09:05:37;;;;;;;2.15;0.40;;;;;;;26.98;49.20;99997.20;125820;1093;22821;-60
2021/07/06 09:08:16;;;;;;;1.03;0.40;;;;;;;27.08;49.26;99992.24;125800;1092;27247;-58
2021/07/06 09:10:48;;;;;;;2.13;0.30;;;;;;;27.21;48.48;99997.52;125777;1092;22794;-60
2021/07/06 09:13:30;;;;;;;1.25;0.30;;;;;;;27.27;48.10;99991.52;125809;1093;26104;-60
2021/07/06 09:16:05;;;;;;;4.23;0.50;;;;;;;27.30;47.79;99987.42;125827;1093;22772;-59
2021/07/06 09:18:38;;;;;;;1.28;0.25;;;;;;;27.37;48.03;99989.44;125820;1092;22855;-60
2021/07/06 09:21:12;;;;;;;1.30;0.30;;;;;;;27.46;47.39;99985.83;125869;1093;22767;-60
2021/07/06 09:23:46;;;;;;;3.08;0.40;;;;;;;27.53;47.01;99984.90;125827;1093;27141;-59
2021/07/06 09:26:21;;;;;;;1.60;0.40;;;;;;;27.55;46.95;99985.05;125920;1093;22842;-61
2021/07/06 09:28:57;;;;;;;2.58;0.30;;;;;;;27.59;46.90;99983.23;126034;1093;22773;-60
2021/07/06 09:31:32;;;;;;;2.77;0.30;;;;;;;27.60;46.83;99984.77;126019;1093;22794;-61
2021/07/06 09:34:10;;;;;;;1.85;0.20;;;;;;;27.69;46.59;99986.84;125859;1093;22765;-59
2021/07/06 09:36:45;;;;;;;3.30;0.40;;;;;;;27.77;46.11;99978.83;125766;1093;22770;-61
2021/07/06 09:39:22;;;;;;;1.05;0.30;;;;;;;27.85;46.12;99975.82;125955;1093;22797;-59
2021/07/06 09:42:00;;;;;;;2.93;0.43;;;;;;;27.91;45.20;99970.52;125886;1092;22823;-61
2021/07/06 09:44:36;;;;;;;4.43;0.40;;;;;;;27.96;45.75;99963.73;125825;1093;22761;-59
2021/07/06 09:47:10;;;;;;;4.20;0.35;;;;;;;27.93;44.95;99979.28;125864;1093;22793;-59
2021/07/06 09:49:44;;;;;;;1.00;0.25;;;;;;;27.87;45.02;99968.09;125869;1093;23502;-60
2021/07/06 09:52:19;;;;;;;2.53;0.30;;;;;;;27.90;45.42;99966.89;125834;1093;22992;-58
2021/07/06 09:54:51;;;;;;;1.43;0.30;;;;;;;27.98;45.42;99963.88;125856;1093;23379;-60
2021/07/06 09:57:25;;;;;;;3.10;0.50;;;;;;;28.00;45.07;99961.91;125829;1093;22951;-60
2021/07/06 10:00:00;;;;;;;2.48;0.50;;;;;;;28.00;44.91;99959.04;125825;1092;22793;-60
2021/07/06 10:02:33;;;;;;;1.05;0.20;;;;;;;28.08;44.68;99955.25;126261;1093;22797;-60
2021/07/06 10:05:10;;;;;;;1.40;0.30;;;;;;;28.06;44.40;99955.11;125796;1093;24429;-61
2021/07/06 10:07:43;;;;;;;1.38;0.40;;;;;;;28.07;44.99;99950.86;125991;1093;26279;-60
2021/07/06 10:10:16;;;;;;;2.43;0.40;;;;;;;28.12;44.52;99946.94;125831;1093;22794;-61
2021/07/06 10:12:50;;;;;;;2.73;0.30;;;;;;;28.20;44.39;99951.14;125861;1092;22786;-60
2021/07/06 10:15:23;;;;;;;1.78;0.30;;;;;;;28.26;43.86;99940.08;125764;1093;25871;-59
2021/07/06 10:17:58;;;;;;;1.15;0.30;;;;;;;28.28;43.79;99945.20;125839;1091;22858;-59
2021/07/06 10:20:32;;;;;;;1.75;0.23;;;;;;;28.35;43.90;99938.54;125855;1092;22794;-60
2021/07/06 10:23:04;;;;;;;1.43;0.30;;;;;;;28.42;43.55;99943.33;125782;1093;22848;-60
2021/07/06 10:25:37;;;;;;;1.35;0.40;;;;;;;28.51;44.05;99934.65;126107;1093;22787;-60
2021/07/06 10:28:18;;;;;;;2.00;0.50;;;;;;;28.60;43.70;99939.63;125812;1092;26547;-61
2021/07/06 10:30:51;;;;;;;0.75;0.30;;;;;;;28.69;43.67;99940.95;125823;1093;22764;-60
2021/07/06 10:33:32;;;;;;;3.20;0.55;;;;;;;28.75;43.16;99941.36;125802;1093;22809;-60
2021/07/06 10:36:06;;;;;;;0.87;0.30;;;;;;;28.82;42.97;99933.91;126050;1093;22770;-61
2021/07/06 10:38:45;;;;;;;1.25;0.30;;;;;;;28.87;42.60;99941.42;125920;1093;22825;-60
2021/07/06 10:41:21;;;;;;;2.90;0.20;;;;;;;28.88;42.05;99940.83;125855;1093;27435;-60
2021/07/06 10:43:56;;;;;;;1.88;0.40;;;;;;;28.93;42.18;99942.59;125890;1093;27762;-60
2021/07/06 10:46:49;;;;;;;3.30;0.30;;;;;;;28.98;42.30;99935.77;125875;1093;22797;-60
2021/07/06 10:49:33;;;;;;;1.20;0.30;;;;;;;28.98;41.77;99938.64;125776;1093;22826;-61
2021/07/06 10:52:07;;;;;;;2.10;0.23;;;;;;;29.01;42.06;99940.27;125970;1093;27217;-60
2021/07/06 10:54:40;;;;;;;1.83;0.30;;;;;;;29.09;42.24;99934.33;125856;1092;22741;-61
2021/07/06 10:57:24;;;;;;;0.93;0.30;;;;;;;29.15;41.83;99921.15;126024;1093;22939;-60
2021/07/06 10:59:58;;;;;;;3.43;0.30;;;;;;;29.15;41.45;99912.53;125770;1093;22767;-63
2021/07/06 11:02:33;;;;;;;0.58;0.30;;;;;;;29.16;41.46;99913.26;125822;1093;27387;-60
2021/07/06 11:05:08;;;;;;;6.63;0.30;;;;;;;29.20;41.65;99905.66;125997;1093;24487;-60
2021/07/06 11:07:52;;;;;;;0.83;0.30;;;;;;;29.26;40.76;99911.81;125968;1093;22772;-60
2021/07/06 11:10:36;;;;;;;4.43;0.20;;;;;;;29.31;40.67;99916.47;125928;1093;22790;-59
2021/07/06 11:13:22;;;;;;;1.00;0.20;;;;;;;29.33;40.51;99904.34;125861;1093;22773;-60
2021/07/06 11:15:54;;;;;;;2.68;0.30;;;;;;;29.16;40.15;99910.38;125803;1093;27642;-60
2021/07/06 11:18:41;;;;;;;2.30;0.30;;;;;;;29.06;40.64;99915.43;125794;1093;25331;-60
2021/07/06 11:21:39;;;;;;;0.90;0.20;;;;;;;29.00;40.62;99898.54;125782;1093;24159;-61
2021/07/06 11:24:22;;;;;;;3.23;0.38;;;;;;;29.06;40.35;99898.95;125855;1093;22770;-61
2021/07/06 11:26:54;;;;;;;1.50;0.28;;;;;;;29.11;40.71;99900.73;125822;1093;22832;-61
2021/07/06 11:29:34;;;;;;;0.50;0.20;;;;;;;29.18;40.03;99885.41;125915;1093;22712;-60
2021/07/06 11:32:12;;;;;;;5.10;0.35;;;;;;;29.23;40.30;99878.56;125837;1093;22763;-61
2021/07/06 11:34:45;;;;;;;3.63;0.30;;;;;;;29.26;40.10;99885.20;125950;1092;22845;-60
2021/07/06 11:37:20;;;;;;;0.83;0.20;;;;;;;29.31;40.11;99875.45;125956;1093;22852;-60
2021/07/06 11:39:53;;;;;;;1.63;0.30;;;;;;;29.37;40.10;99873.73;125885;1093;22870;-61
2021/07/06 11:42:38;;;;;;;1.23;0.30;;;;;;;29.39;39.93;99885.37;125842;1093;22794;-61
2021/07/06 11:45:13;;;;;;;2.90;0.30;;;;;;;29.52;40.43;99895.53;125820;1093;26944;-60
2021/07/06 11:48:09;;;;;;;2.83;0.25;;;;;;;29.63;39.98;99902.70;125911;1093;22818;-60